sensor_id;sensor_type;location;lat;lon;timestamp;P1;durP1;ratioP1;P2;durP2;ratioP2
51010;SDS011;37038;50.182;8.624;2024-01-27T00:00:52;8.70;;;4.15;;
51010;SDS011;37038;50.182;8.624;2024-01-27T00:03:42;15.07;;;4.85;;
51010;SDS011;37038;50.182;8.624;2024-01-27T00:06:30;12.88;;;4.90;;
51010;SDS011;37038;50.182;8.624;2024-01-27T00:09:19;15.82;;;5.03;;
51010;SDS011;37038;50.182;8.624;2024-01-27T00:12:07;16.23;;;5.47;;
51010;SDS011;37038;50.182;8.624;2024-01-27T00:14:56;24.98;;;5.88;;
51010;SDS011;37038;50.182;8.624;2024-01-27T00:17:44;17.50;;;5.07;;
51010;SDS011;37038;50.182;8.624;2024-01-27T00:20:32;19.13;;;5.75;;
51010;SDS011;37038;50.182;8.624;2024-01-27T00:23:20;18.13;;;6.22;;
51010;SDS011;37038;50.182;8.624;2024-01-27T00:26:09;12.25;;;4.70;;
51010;SDS011;37038;50.182;8.624;2024-01-27T00:28:58;15.13;;;5.22;;
51010;SDS011;37038;50.182;8.624;2024-01-27T00:31:46;10.18;;;4.45;;
51010;SDS011;37038;50.182;8.624;2024-01-27T00:34:36;19.27;;;5.03;;
51010;SDS011;37038;50.182;8.624;2024-01-27T00:37:24;17.73;;;4.88;;
51010;SDS011;37038;50.182;8.624;2024-01-27T00:40:13;12.50;;;4.88;;
51010;SDS011;37038;50.182;8.624;2024-01-27T00:43:04;17.83;;;5.00;;
51010;SDS011;37038;50.182;8.624;2024-01-27T00:45:53;14.20;;;4.47;;
51010;SDS011;37038;50.182;8.624;2024-01-27T00:48:41;24.15;;;5.65;;
51010;SDS011;37038;50.182;8.624;2024-01-27T00:51:30;25.05;;;5.85;;
51010;SDS011;37038;50.182;8.624;2024-01-27T00:54:19;13.65;;;4.80;;
51010;SDS011;37038;50.182;8.624;2024-01-27T00:57:07;19.48;;;4.68;;
51010;SDS011;37038;50.182;8.624;2024-01-27T00:59:55;19.80;;;4.93;;
51010;SDS011;37038;50.182;8.624;2024-01-27T01:02:43;15.73;;;4.68;;
51010;SDS011;37038;50.182;8.624;2024-01-27T01:05:32;17.55;;;4.72;;
51010;SDS011;37038;50.182;8.624;2024-01-27T01:08:20;21.67;;;5.90;;
51010;SDS011;37038;50.182;8.624;2024-01-27T01:11:08;9.93;;;3.75;;
51010;SDS011;37038;50.182;8.624;2024-01-27T01:13:57;9.50;;;4.20;;
51010;SDS011;37038;50.182;8.624;2024-01-27T01:16:45;14.27;;;4.05;;
51010;SDS011;37038;50.182;8.624;2024-01-27T01:19:33;18.38;;;4.32;;
51010;SDS011;37038;50.182;8.624;2024-01-27T01:22:23;16.02;;;4.82;;
51010;SDS011;37038;50.182;8.624;2024-01-27T01:25:11;18.08;;;4.38;;
51010;SDS011;37038;50.182;8.624;2024-01-27T01:28:00;14.25;;;4.78;;
51010;SDS011;37038;50.182;8.624;2024-01-27T01:30:48;12.20;;;3.85;;
51010;SDS011;37038;50.182;8.624;2024-01-27T01:33:37;15.18;;;4.68;;
51010;SDS011;37038;50.182;8.624;2024-01-27T01:36:25;17.83;;;5.20;;
51010;SDS011;37038;50.182;8.624;2024-01-27T01:39:14;17.63;;;4.00;;
51010;SDS011;37038;50.182;8.624;2024-01-27T01:42:02;10.32;;;4.10;;
51010;SDS011;37038;50.182;8.624;2024-01-27T01:44:51;15.68;;;4.95;;
51010;SDS011;37038;50.182;8.624;2024-01-27T01:47:40;19.50;;;3.92;;
51010;SDS011;37038;50.182;8.624;2024-01-27T01:50:29;15.38;;;4.30;;
51010;SDS011;37038;50.182;8.624;2024-01-27T01:53:17;16.55;;;5.60;;
51010;SDS011;37038;50.182;8.624;2024-01-27T01:56:06;14.38;;;3.83;;
51010;SDS011;37038;50.182;8.624;2024-01-27T01:58:56;14.82;;;4.70;;
51010;SDS011;37038;50.182;8.624;2024-01-27T02:01:45;15.95;;;5.43;;
51010;SDS011;37038;50.182;8.624;2024-01-27T02:04:40;15.60;;;5.07;;
51010;SDS011;37038;50.182;8.624;2024-01-27T02:07:36;15.68;;;5.55;;
51010;SDS011;37038;50.182;8.624;2024-01-27T02:10:24;17.20;;;6.35;;
51010;SDS011;37038;50.182;8.624;2024-01-27T02:13:19;23.85;;;4.97;;
51010;SDS011;37038;50.182;8.624;2024-01-27T02:16:09;22.98;;;6.15;;
51010;SDS011;37038;50.182;8.624;2024-01-27T02:19:00;15.88;;;5.25;;
51010;SDS011;37038;50.182;8.624;2024-01-27T02:21:48;17.50;;;5.43;;
51010;SDS011;37038;50.182;8.624;2024-01-27T02:24:36;21.30;;;5.88;;
51010;SDS011;37038;50.182;8.624;2024-01-27T02:27:25;19.60;;;5.75;;
51010;SDS011;37038;50.182;8.624;2024-01-27T02:30:16;19.52;;;4.93;;
51010;SDS011;37038;50.182;8.624;2024-01-27T02:33:04;27.17;;;6.15;;
51010;SDS011;37038;50.182;8.624;2024-01-27T02:35:53;13.90;;;4.57;;
51010;SDS011;37038;50.182;8.624;2024-01-27T02:38:41;23.42;;;5.50;;
51010;SDS011;37038;50.182;8.624;2024-01-27T02:41:30;14.48;;;4.30;;
51010;SDS011;37038;50.182;8.624;2024-01-27T02:44:28;25.50;;;6.43;;
51010;SDS011;37038;50.182;8.624;2024-01-27T02:47:19;20.38;;;5.25;;
51010;SDS011;37038;50.182;8.624;2024-01-27T02:50:08;21.17;;;5.07;;
51010;SDS011;37038;50.182;8.624;2024-01-27T02:52:56;17.30;;;5.60;;
51010;SDS011;37038;50.182;8.624;2024-01-27T02:55:44;19.75;;;5.80;;
51010;SDS011;37038;50.182;8.624;2024-01-27T02:58:33;22.25;;;6.70;;
51010;SDS011;37038;50.182;8.624;2024-01-27T03:01:21;23.80;;;6.22;;
51010;SDS011;37038;50.182;8.624;2024-01-27T03:04:09;22.13;;;5.38;;
51010;SDS011;37038;50.182;8.624;2024-01-27T03:06:58;20.90;;;5.18;;
51010;SDS011;37038;50.182;8.624;2024-01-27T03:09:46;16.50;;;4.18;;
51010;SDS011;37038;50.182;8.624;2024-01-27T03:12:36;18.00;;;5.10;;
51010;SDS011;37038;50.182;8.624;2024-01-27T03:15:25;17.08;;;4.90;;
51010;SDS011;37038;50.182;8.624;2024-01-27T03:18:13;11.25;;;4.70;;
51010;SDS011;37038;50.182;8.624;2024-01-27T03:21:05;25.80;;;6.30;;
51010;SDS011;37038;50.182;8.624;2024-01-27T03:23:55;24.05;;;5.28;;
51010;SDS011;37038;50.182;8.624;2024-01-27T03:26:44;17.45;;;5.05;;
51010;SDS011;37038;50.182;8.624;2024-01-27T03:29:32;27.15;;;5.88;;
51010;SDS011;37038;50.182;8.624;2024-01-27T03:32:20;15.30;;;4.82;;
51010;SDS011;37038;50.182;8.624;2024-01-27T03:35:11;19.52;;;5.82;;
51010;SDS011;37038;50.182;8.624;2024-01-27T03:37:59;14.57;;;4.90;;
51010;SDS011;37038;50.182;8.624;2024-01-27T03:40:51;15.57;;;4.68;;
51010;SDS011;37038;50.182;8.624;2024-01-27T03:43:39;16.15;;;4.93;;
51010;SDS011;37038;50.182;8.624;2024-01-27T03:46:27;21.55;;;5.32;;
51010;SDS011;37038;50.182;8.624;2024-01-27T03:49:15;21.65;;;5.03;;
51010;SDS011;37038;50.182;8.624;2024-01-27T03:52:04;18.20;;;4.75;;
51010;SDS011;37038;50.182;8.624;2024-01-27T03:54:55;21.48;;;5.22;;
51010;SDS011;37038;50.182;8.624;2024-01-27T03:57:43;13.82;;;5.22;;
51010;SDS011;37038;50.182;8.624;2024-01-27T04:00:31;24.63;;;5.93;;
51010;SDS011;37038;50.182;8.624;2024-01-27T04:03:20;20.20;;;4.97;;
51010;SDS011;37038;50.182;8.624;2024-01-27T04:06:11;21.55;;;4.85;;
51010;SDS011;37038;50.182;8.624;2024-01-27T04:08:59;20.10;;;4.75;;
51010;SDS011;37038;50.182;8.624;2024-01-27T04:11:49;21.15;;;4.55;;
51010;SDS011;37038;50.182;8.624;2024-01-27T04:14:38;23.35;;;5.22;;
51010;SDS011;37038;50.182;8.624;2024-01-27T04:17:26;14.65;;;5.13;;
51010;SDS011;37038;50.182;8.624;2024-01-27T04:20:15;17.52;;;5.00;;
51010;SDS011;37038;50.182;8.624;2024-01-27T04:23:04;25.73;;;5.13;;
51010;SDS011;37038;50.182;8.624;2024-01-27T04:25:52;20.23;;;4.97;;
51010;SDS011;37038;50.182;8.624;2024-01-27T04:28:40;18.13;;;5.05;;
51010;SDS011;37038;50.182;8.624;2024-01-27T04:31:28;21.45;;;6.03;;
51010;SDS011;37038;50.182;8.624;2024-01-27T04:34:18;15.20;;;4.72;;
51010;SDS011;37038;50.182;8.624;2024-01-27T04:37:07;18.52;;;4.78;;
51010;SDS011;37038;50.182;8.624;2024-01-27T04:39:58;25.30;;;5.63;;
51010;SDS011;37038;50.182;8.624;2024-01-27T04:42:46;21.63;;;6.22;;
51010;SDS011;37038;50.182;8.624;2024-01-27T04:45:35;26.55;;;5.28;;
51010;SDS011;37038;50.182;8.624;2024-01-27T04:48:23;19.00;;;5.30;;
51010;SDS011;37038;50.182;8.624;2024-01-27T04:51:11;24.90;;;5.10;;
51010;SDS011;37038;50.182;8.624;2024-01-27T04:53:59;18.35;;;5.85;;
51010;SDS011;37038;50.182;8.624;2024-01-27T04:56:47;19.02;;;4.78;;
51010;SDS011;37038;50.182;8.624;2024-01-27T04:59:38;19.17;;;4.50;;
51010;SDS011;37038;50.182;8.624;2024-01-27T05:02:26;26.90;;;4.78;;
51010;SDS011;37038;50.182;8.624;2024-01-27T05:05:14;20.83;;;5.05;;
51010;SDS011;37038;50.182;8.624;2024-01-27T05:08:03;19.55;;;5.70;;
51010;SDS011;37038;50.182;8.624;2024-01-27T05:10:51;14.88;;;4.78;;
51010;SDS011;37038;50.182;8.624;2024-01-27T05:13:44;20.77;;;5.10;;
51010;SDS011;37038;50.182;8.624;2024-01-27T05:16:35;16.77;;;5.22;;
51010;SDS011;37038;50.182;8.624;2024-01-27T05:19:24;20.20;;;5.65;;
51010;SDS011;37038;50.182;8.624;2024-01-27T05:22:15;17.98;;;4.88;;
51010;SDS011;37038;50.182;8.624;2024-01-27T05:25:03;17.92;;;5.53;;
51010;SDS011;37038;50.182;8.624;2024-01-27T05:27:52;22.65;;;4.95;;
51010;SDS011;37038;50.182;8.624;2024-01-27T05:30:42;17.85;;;5.15;;
51010;SDS011;37038;50.182;8.624;2024-01-27T05:33:31;15.50;;;5.20;;
51010;SDS011;37038;50.182;8.624;2024-01-27T05:36:20;16.30;;;5.38;;
51010;SDS011;37038;50.182;8.624;2024-01-27T05:39:08;18.58;;;5.35;;
51010;SDS011;37038;50.182;8.624;2024-01-27T05:41:59;16.98;;;6.60;;
51010;SDS011;37038;50.182;8.624;2024-01-27T05:44:47;20.90;;;6.35;;
51010;SDS011;37038;50.182;8.624;2024-01-27T05:47:35;22.70;;;6.25;;
51010;SDS011;37038;50.182;8.624;2024-01-27T05:50:24;21.67;;;6.68;;
51010;SDS011;37038;50.182;8.624;2024-01-27T05:53:12;21.55;;;7.75;;
51010;SDS011;37038;50.182;8.624;2024-01-27T05:56:00;28.10;;;8.77;;
51010;SDS011;37038;50.182;8.624;2024-01-27T05:58:48;24.75;;;8.70;;
51010;SDS011;37038;50.182;8.624;2024-01-27T06:01:37;20.60;;;8.30;;
51010;SDS011;37038;50.182;8.624;2024-01-27T06:04:28;20.13;;;8.15;;
51010;SDS011;37038;50.182;8.624;2024-01-27T06:07:17;27.92;;;8.45;;
51010;SDS011;37038;50.182;8.624;2024-01-27T06:10:08;18.77;;;7.68;;
51010;SDS011;37038;50.182;8.624;2024-01-27T06:12:57;33.42;;;9.70;;
51010;SDS011;37038;50.182;8.624;2024-01-27T06:15:45;25.92;;;9.80;;
51010;SDS011;37038;50.182;8.624;2024-01-27T06:18:34;32.33;;;9.68;;
51010;SDS011;37038;50.182;8.624;2024-01-27T06:21:23;28.50;;;10.02;;
51010;SDS011;37038;50.182;8.624;2024-01-27T06:24:12;19.42;;;9.07;;
51010;SDS011;37038;50.182;8.624;2024-01-27T06:27:03;29.10;;;9.98;;
51010;SDS011;37038;50.182;8.624;2024-01-27T06:29:52;20.63;;;9.45;;
51010;SDS011;37038;50.182;8.624;2024-01-27T06:32:40;27.05;;;9.63;;
51010;SDS011;37038;50.182;8.624;2024-01-27T06:35:30;29.75;;;9.35;;
51010;SDS011;37038;50.182;8.624;2024-01-27T06:38:18;25.80;;;9.32;;
51010;SDS011;37038;50.182;8.624;2024-01-27T06:41:06;27.70;;;10.00;;
51010;SDS011;37038;50.182;8.624;2024-01-27T06:43:57;25.60;;;8.50;;
51010;SDS011;37038;50.182;8.624;2024-01-27T06:46:45;17.38;;;9.10;;
51010;SDS011;37038;50.182;8.624;2024-01-27T06:49:37;20.73;;;9.18;;
51010;SDS011;37038;50.182;8.624;2024-01-27T06:55:58;24.10;;;9.48;;
51010;SDS011;37038;50.182;8.624;2024-01-27T06:58:52;21.08;;;9.07;;
51010;SDS011;37038;50.182;8.624;2024-01-27T07:01:47;25.35;;;10.20;;
51010;SDS011;37038;50.182;8.624;2024-01-27T07:04:42;23.52;;;9.75;;
51010;SDS011;37038;50.182;8.624;2024-01-27T07:07:35;20.42;;;9.20;;
51010;SDS011;37038;50.182;8.624;2024-01-27T07:10:28;23.20;;;9.27;;
51010;SDS011;37038;50.182;8.624;2024-01-27T07:13:53;19.83;;;8.52;;
51010;SDS011;37038;50.182;8.624;2024-01-27T07:17:36;25.92;;;9.02;;
51010;SDS011;37038;50.182;8.624;2024-01-27T07:20:59;31.05;;;9.65;;
51010;SDS011;37038;50.182;8.624;2024-01-27T07:24:43;22.25;;;9.18;;
51010;SDS011;37038;50.182;8.624;2024-01-27T07:28:03;23.27;;;9.02;;
51010;SDS011;37038;50.182;8.624;2024-01-27T07:31:05;25.23;;;9.30;;
51010;SDS011;37038;50.182;8.624;2024-01-27T07:34:21;27.52;;;10.50;;
51010;SDS011;37038;50.182;8.624;2024-01-27T07:37:10;23.52;;;9.80;;
51010;SDS011;37038;50.182;8.624;2024-01-27T07:40:09;22.15;;;10.32;;
51010;SDS011;37038;50.182;8.624;2024-01-27T07:43:00;22.30;;;10.35;;
51010;SDS011;37038;50.182;8.624;2024-01-27T07:45:52;23.70;;;10.05;;
51010;SDS011;37038;50.182;8.624;2024-01-27T07:48:47;22.63;;;12.63;;
51010;SDS011;37038;50.182;8.624;2024-01-27T07:52:06;19.90;;;9.48;;
51010;SDS011;37038;50.182;8.624;2024-01-27T07:55:24;23.48;;;8.85;;
51010;SDS011;37038;50.182;8.624;2024-01-27T07:58:31;24.88;;;9.45;;
51010;SDS011;37038;50.182;8.624;2024-01-27T08:01:32;27.15;;;9.95;;
51010;SDS011;37038;50.182;8.624;2024-01-27T08:04:20;20.83;;;8.98;;
51010;SDS011;37038;50.182;8.624;2024-01-27T08:07:22;25.48;;;8.57;;
51010;SDS011;37038;50.182;8.624;2024-01-27T08:10:30;20.70;;;9.23;;
51010;SDS011;37038;50.182;8.624;2024-01-27T08:13:23;26.20;;;9.48;;
51010;SDS011;37038;50.182;8.624;2024-01-27T08:16:24;22.17;;;8.80;;
51010;SDS011;37038;50.182;8.624;2024-01-27T08:19:15;19.17;;;9.50;;
51010;SDS011;37038;50.182;8.624;2024-01-27T08:22:10;22.88;;;10.02;;
51010;SDS011;37038;50.182;8.624;2024-01-27T08:25:25;20.48;;;9.05;;
51010;SDS011;37038;50.182;8.624;2024-01-27T08:28:21;20.45;;;8.75;;
51010;SDS011;37038;50.182;8.624;2024-01-27T08:31:10;19.58;;;8.60;;
51010;SDS011;37038;50.182;8.624;2024-01-27T08:34:06;25.60;;;9.35;;
51010;SDS011;37038;50.182;8.624;2024-01-27T08:36:59;22.60;;;8.95;;
51010;SDS011;37038;50.182;8.624;2024-01-27T08:40:04;17.10;;;8.65;;
51010;SDS011;37038;50.182;8.624;2024-01-27T08:43:14;14.90;;;8.90;;
51010;SDS011;37038;50.182;8.624;2024-01-27T08:46:18;18.98;;;11.98;;
51010;SDS011;37038;50.182;8.624;2024-01-27T08:49:09;23.30;;;9.90;;
51010;SDS011;37038;50.182;8.624;2024-01-27T08:51:58;28.45;;;9.57;;
51010;SDS011;37038;50.182;8.624;2024-01-27T08:54:51;29.60;;;14.53;;
51010;SDS011;37038;50.182;8.624;2024-01-27T08:58:04;30.40;;;13.75;;
51010;SDS011;37038;50.182;8.624;2024-01-27T09:04:53;19.25;;;8.18;;
51010;SDS011;37038;50.182;8.624;2024-01-27T09:08:35;17.92;;;8.35;;
51010;SDS011;37038;50.182;8.624;2024-01-27T09:11:45;17.07;;;9.53;;
51010;SDS011;37038;50.182;8.624;2024-01-27T09:14:45;20.75;;;8.98;;
51010;SDS011;37038;50.182;8.624;2024-01-27T09:22:10;17.30;;;8.32;;
51010;SDS011;37038;50.182;8.624;2024-01-27T09:25:50;20.20;;;8.10;;
51010;SDS011;37038;50.182;8.624;2024-01-27T09:29:10;19.38;;;7.10;;
51010;SDS011;37038;50.182;8.624;2024-01-27T09:32:19;12.93;;;7.10;;
51010;SDS011;37038;50.182;8.624;2024-01-27T09:35:23;16.88;;;7.93;;
51010;SDS011;37038;50.182;8.624;2024-01-27T09:41:41;18.40;;;7.90;;
51010;SDS011;37038;50.182;8.624;2024-01-27T09:44:37;17.23;;;6.72;;
51010;SDS011;37038;50.182;8.624;2024-01-27T09:47:38;19.45;;;7.82;;
51010;SDS011;37038;50.182;8.624;2024-01-27T09:50:39;20.13;;;7.80;;
51010;SDS011;37038;50.182;8.624;2024-01-27T09:53:29;17.05;;;8.40;;
51010;SDS011;37038;50.182;8.624;2024-01-27T09:56:22;28.33;;;9.32;;
51010;SDS011;37038;50.182;8.624;2024-01-27T09:59:18;15.70;;;9.32;;
51010;SDS011;37038;50.182;8.624;2024-01-27T10:02:10;16.63;;;10.38;;
51010;SDS011;37038;50.182;8.624;2024-01-27T10:05:08;17.83;;;8.60;;
51010;SDS011;37038;50.182;8.624;2024-01-27T10:08:07;18.15;;;8.50;;
51010;SDS011;37038;50.182;8.624;2024-01-27T10:10:56;18.63;;;9.43;;
51010;SDS011;37038;50.182;8.624;2024-01-27T10:14:05;16.20;;;9.30;;
51010;SDS011;37038;50.182;8.624;2024-01-27T10:17:03;16.93;;;7.83;;
51010;SDS011;37038;50.182;8.624;2024-01-27T10:20:00;19.38;;;7.82;;
51010;SDS011;37038;50.182;8.624;2024-01-27T10:22:55;21.63;;;8.82;;
51010;SDS011;37038;50.182;8.624;2024-01-27T10:25:49;19.27;;;8.40;;
51010;SDS011;37038;50.182;8.624;2024-01-27T10:28:57;19.58;;;8.75;;
51010;SDS011;37038;50.182;8.624;2024-01-27T10:31:52;16.90;;;8.13;;
51010;SDS011;37038;50.182;8.624;2024-01-27T10:35:03;24.67;;;8.35;;
51010;SDS011;37038;50.182;8.624;2024-01-27T10:38:00;24.60;;;8.40;;
51010;SDS011;37038;50.182;8.624;2024-01-27T10:40:51;21.88;;;8.90;;
51010;SDS011;37038;50.182;8.624;2024-01-27T10:43:44;16.38;;;7.10;;
51010;SDS011;37038;50.182;8.624;2024-01-27T10:47:04;15.35;;;8.25;;
51010;SDS011;37038;50.182;8.624;2024-01-27T10:50:18;19.08;;;7.00;;
51010;SDS011;37038;50.182;8.624;2024-01-27T10:53:19;20.10;;;7.43;;
51010;SDS011;37038;50.182;8.624;2024-01-27T10:56:22;17.85;;;8.13;;
51010;SDS011;37038;50.182;8.624;2024-01-27T10:59:19;19.58;;;7.30;;
51010;SDS011;37038;50.182;8.624;2024-01-27T11:02:13;19.40;;;8.15;;
51010;SDS011;37038;50.182;8.624;2024-01-27T11:05:11;18.27;;;7.50;;
51010;SDS011;37038;50.182;8.624;2024-01-27T11:08:10;16.13;;;7.85;;
51010;SDS011;37038;50.182;8.624;2024-01-27T11:11:23;16.95;;;8.00;;
51010;SDS011;37038;50.182;8.624;2024-01-27T11:14:26;15.68;;;7.10;;
51010;SDS011;37038;50.182;8.624;2024-01-27T11:17:30;18.63;;;6.53;;
51010;SDS011;37038;50.182;8.624;2024-01-27T11:20:33;11.38;;;6.60;;
51010;SDS011;37038;50.182;8.624;2024-01-27T11:26:42;17.35;;;7.43;;
51010;SDS011;37038;50.182;8.624;2024-01-27T11:29:32;19.52;;;7.50;;
51010;SDS011;37038;50.182;8.624;2024-01-27T11:32:25;21.23;;;7.33;;
51010;SDS011;37038;50.182;8.624;2024-01-27T11:35:35;16.80;;;8.07;;
51010;SDS011;37038;50.182;8.624;2024-01-27T11:38:24;19.17;;;6.50;;
51010;SDS011;37038;50.182;8.624;2024-01-27T11:41:22;18.27;;;6.40;;
51010;SDS011;37038;50.182;8.624;2024-01-27T11:44:23;16.65;;;6.82;;
51010;SDS011;37038;50.182;8.624;2024-01-27T11:47:20;16.07;;;6.50;;
51010;SDS011;37038;50.182;8.624;2024-01-27T11:50:13;12.38;;;5.40;;
51010;SDS011;37038;50.182;8.624;2024-01-27T11:53:12;14.80;;;6.13;;
51010;SDS011;37038;50.182;8.624;2024-01-27T11:56:04;17.08;;;7.10;;
51010;SDS011;37038;50.182;8.624;2024-01-27T11:58:53;17.02;;;5.93;;
51010;SDS011;37038;50.182;8.624;2024-01-27T12:01:45;15.95;;;6.35;;
51010;SDS011;37038;50.182;8.624;2024-01-27T12:04:36;19.45;;;6.88;;
51010;SDS011;37038;50.182;8.624;2024-01-27T12:07:27;14.45;;;6.45;;
51010;SDS011;37038;50.182;8.624;2024-01-27T12:10:19;23.77;;;6.30;;
51010;SDS011;37038;50.182;8.624;2024-01-27T12:13:10;16.45;;;6.15;;
51010;SDS011;37038;50.182;8.624;2024-01-27T12:15:58;20.35;;;7.28;;
51010;SDS011;37038;50.182;8.624;2024-01-27T12:18:46;14.13;;;5.60;;
51010;SDS011;37038;50.182;8.624;2024-01-27T12:21:35;14.35;;;6.28;;
51010;SDS011;37038;50.182;8.624;2024-01-27T12:24:25;19.02;;;7.10;;
51010;SDS011;37038;50.182;8.624;2024-01-27T12:27:14;23.13;;;6.55;;
51010;SDS011;37038;50.182;8.624;2024-01-27T12:30:05;15.05;;;5.72;;
51010;SDS011;37038;50.182;8.624;2024-01-27T12:32:55;17.52;;;5.93;;
51010;SDS011;37038;50.182;8.624;2024-01-27T12:35:43;18.90;;;6.10;;
51010;SDS011;37038;50.182;8.624;2024-01-27T12:38:31;19.58;;;5.78;;
51010;SDS011;37038;50.182;8.624;2024-01-27T12:41:20;19.25;;;5.85;;
51010;SDS011;37038;50.182;8.624;2024-01-27T12:44:08;16.80;;;4.82;;
51010;SDS011;37038;50.182;8.624;2024-01-27T12:46:56;17.30;;;5.05;;
51010;SDS011;37038;50.182;8.624;2024-01-27T12:49:44;16.20;;;4.35;;
51010;SDS011;37038;50.182;8.624;2024-01-27T12:52:33;11.35;;;4.90;;
51010;SDS011;37038;50.182;8.624;2024-01-27T12:55:21;15.48;;;4.15;;
51010;SDS011;37038;50.182;8.624;2024-01-27T12:58:10;18.08;;;5.82;;
51010;SDS011;37038;50.182;8.624;2024-01-27T13:00:58;12.88;;;5.00;;
51010;SDS011;37038;50.182;8.624;2024-01-27T13:03:46;18.00;;;4.68;;
51010;SDS011;37038;50.182;8.624;2024-01-27T13:06:34;15.52;;;4.25;;
51010;SDS011;37038;50.182;8.624;2024-01-27T13:09:23;10.07;;;4.10;;
51010;SDS011;37038;50.182;8.624;2024-01-27T13:12:11;9.98;;;4.93;;
51010;SDS011;37038;50.182;8.624;2024-01-27T13:14:59;13.55;;;4.43;;
51010;SDS011;37038;50.182;8.624;2024-01-27T13:17:48;13.73;;;4.53;;
51010;SDS011;37038;50.182;8.624;2024-01-27T13:20:36;12.32;;;4.28;;
51010;SDS011;37038;50.182;8.624;2024-01-27T13:23:25;12.45;;;4.57;;
51010;SDS011;37038;50.182;8.624;2024-01-27T13:26:13;12.77;;;4.68;;
51010;SDS011;37038;50.182;8.624;2024-01-27T13:29:06;20.77;;;4.88;;
51010;SDS011;37038;50.182;8.624;2024-01-27T13:31:55;19.92;;;5.93;;
51010;SDS011;37038;50.182;8.624;2024-01-27T13:34:46;12.88;;;5.22;;
51010;SDS011;37038;50.182;8.624;2024-01-27T13:37:35;15.70;;;4.80;;
51010;SDS011;37038;50.182;8.624;2024-01-27T13:40:23;17.05;;;5.25;;
51010;SDS011;37038;50.182;8.624;2024-01-27T13:43:12;14.10;;;5.05;;
51010;SDS011;37038;50.182;8.624;2024-01-27T13:46:00;14.05;;;5.13;;
51010;SDS011;37038;50.182;8.624;2024-01-27T13:48:49;15.07;;;5.25;;
51010;SDS011;37038;50.182;8.624;2024-01-27T13:51:38;16.98;;;5.20;;
51010;SDS011;37038;50.182;8.624;2024-01-27T13:54:26;14.73;;;4.57;;
51010;SDS011;37038;50.182;8.624;2024-01-27T13:57:15;18.02;;;5.32;;
51010;SDS011;37038;50.182;8.624;2024-01-27T14:00:04;11.75;;;4.95;;
51010;SDS011;37038;50.182;8.624;2024-01-27T14:02:53;14.27;;;4.18;;
51010;SDS011;37038;50.182;8.624;2024-01-27T14:05:42;15.13;;;5.25;;
51010;SDS011;37038;50.182;8.624;2024-01-27T14:08:30;16.05;;;4.20;;
51010;SDS011;37038;50.182;8.624;2024-01-27T14:11:18;9.48;;;3.90;;
51010;SDS011;37038;50.182;8.624;2024-01-27T14:14:08;15.30;;;4.80;;
51010;SDS011;37038;50.182;8.624;2024-01-27T14:16:56;16.38;;;4.28;;
51010;SDS011;37038;50.182;8.624;2024-01-27T14:19:48;18.23;;;4.50;;
51010;SDS011;37038;50.182;8.624;2024-01-27T14:22:40;16.08;;;4.05;;
51010;SDS011;37038;50.182;8.624;2024-01-27T14:25:28;15.35;;;4.82;;
51010;SDS011;37038;50.182;8.624;2024-01-27T14:28:18;19.15;;;4.68;;
51010;SDS011;37038;50.182;8.624;2024-01-27T14:31:06;13.38;;;3.92;;
51010;SDS011;37038;50.182;8.624;2024-01-27T14:33:54;14.75;;;4.18;;
51010;SDS011;37038;50.182;8.624;2024-01-27T14:36:42;9.77;;;4.00;;
51010;SDS011;37038;50.182;8.624;2024-01-27T14:39:34;9.15;;;3.85;;
51010;SDS011;37038;50.182;8.624;2024-01-27T14:42:23;12.02;;;4.18;;
51010;SDS011;37038;50.182;8.624;2024-01-27T14:45:11;12.20;;;4.28;;
51010;SDS011;37038;50.182;8.624;2024-01-27T14:48:00;12.88;;;4.18;;
51010;SDS011;37038;50.182;8.624;2024-01-27T14:50:49;22.40;;;4.53;;
51010;SDS011;37038;50.182;8.624;2024-01-27T14:53:44;16.98;;;5.03;;
51010;SDS011;37038;50.182;8.624;2024-01-27T14:56:33;11.40;;;4.22;;
51010;SDS011;37038;50.182;8.624;2024-01-27T14:59:21;10.25;;;3.92;;
51010;SDS011;37038;50.182;8.624;2024-01-27T15:02:09;17.55;;;5.38;;
51010;SDS011;37038;50.182;8.624;2024-01-27T15:04:57;13.25;;;4.80;;
51010;SDS011;37038;50.182;8.624;2024-01-27T15:07:46;16.83;;;4.65;;
51010;SDS011;37038;50.182;8.624;2024-01-27T15:10:37;15.70;;;5.00;;
51010;SDS011;37038;50.182;8.624;2024-01-27T15:13:27;16.58;;;4.72;;
51010;SDS011;37038;50.182;8.624;2024-01-27T15:16:15;13.15;;;4.68;;
51010;SDS011;37038;50.182;8.624;2024-01-27T15:19:04;13.40;;;4.18;;
51010;SDS011;37038;50.182;8.624;2024-01-27T15:21:55;14.52;;;3.90;;
51010;SDS011;37038;50.182;8.624;2024-01-27T15:24:44;17.38;;;4.07;;
51010;SDS011;37038;50.182;8.624;2024-01-27T15:27:32;11.52;;;4.38;;
51010;SDS011;37038;50.182;8.624;2024-01-27T15:30:20;13.85;;;4.55;;
51010;SDS011;37038;50.182;8.624;2024-01-27T15:33:08;17.80;;;4.88;;
51010;SDS011;37038;50.182;8.624;2024-01-27T15:36:01;15.80;;;4.55;;
51010;SDS011;37038;50.182;8.624;2024-01-27T15:38:55;10.95;;;4.47;;
51010;SDS011;37038;50.182;8.624;2024-01-27T15:41:54;16.13;;;4.18;;
51010;SDS011;37038;50.182;8.624;2024-01-27T15:44:54;16.50;;;4.28;;
51010;SDS011;37038;50.182;8.624;2024-01-27T15:47:45;15.60;;;4.10;;
51010;SDS011;37038;50.182;8.624;2024-01-27T15:50:33;31.40;;;12.02;;
51010;SDS011;37038;50.182;8.624;2024-01-27T15:53:23;39.85;;;19.60;;
51010;SDS011;37038;50.182;8.624;2024-01-27T15:56:11;46.10;;;21.65;;
51010;SDS011;37038;50.182;8.624;2024-01-27T15:59:00;27.42;;;11.25;;
51010;SDS011;37038;50.182;8.624;2024-01-27T16:01:51;20.35;;;9.20;;
51010;SDS011;37038;50.182;8.624;2024-01-27T16:04:44;17.05;;;6.55;;
51010;SDS011;37038;50.182;8.624;2024-01-27T16:07:34;19.83;;;5.93;;
51010;SDS011;37038;50.182;8.624;2024-01-27T16:10:22;16.58;;;5.30;;
51010;SDS011;37038;50.182;8.624;2024-01-27T16:13:11;16.92;;;7.05;;
51010;SDS011;37038;50.182;8.624;2024-01-27T16:16:00;15.13;;;5.63;;
51010;SDS011;37038;50.182;8.624;2024-01-27T16:18:49;16.92;;;5.68;;
51010;SDS011;37038;50.182;8.624;2024-01-27T16:21:40;19.83;;;5.60;;
51010;SDS011;37038;50.182;8.624;2024-01-27T16:24:31;14.00;;;5.30;;
51010;SDS011;37038;50.182;8.624;2024-01-27T16:27:20;16.70;;;6.22;;
51010;SDS011;37038;50.182;8.624;2024-01-27T16:30:16;19.02;;;5.00;;
51010;SDS011;37038;50.182;8.624;2024-01-27T16:33:04;17.48;;;5.20;;
51010;SDS011;37038;50.182;8.624;2024-01-27T16:35:54;15.25;;;5.82;;
51010;SDS011;37038;50.182;8.624;2024-01-27T16:38:42;18.30;;;5.20;;
51010;SDS011;37038;50.182;8.624;2024-01-27T16:41:31;17.58;;;5.95;;
51010;SDS011;37038;50.182;8.624;2024-01-27T16:44:20;16.58;;;4.93;;
51010;SDS011;37038;50.182;8.624;2024-01-27T16:47:10;14.10;;;5.55;;
51010;SDS011;37038;50.182;8.624;2024-01-27T16:49:58;16.98;;;5.63;;
51010;SDS011;37038;50.182;8.624;2024-01-27T16:52:46;15.07;;;4.90;;
51010;SDS011;37038;50.182;8.624;2024-01-27T16:55:35;17.92;;;5.45;;
51010;SDS011;37038;50.182;8.624;2024-01-27T16:58:25;18.55;;;5.90;;
51010;SDS011;37038;50.182;8.624;2024-01-27T17:01:13;17.38;;;5.28;;
51010;SDS011;37038;50.182;8.624;2024-01-27T17:04:02;25.02;;;6.70;;
51010;SDS011;37038;50.182;8.624;2024-01-27T17:06:50;27.23;;;9.82;;
51010;SDS011;37038;50.182;8.624;2024-01-27T17:09:38;19.77;;;10.15;;
51010;SDS011;37038;50.182;8.624;2024-01-27T17:12:26;26.38;;;12.05;;
51010;SDS011;37038;50.182;8.624;2024-01-27T17:15:15;27.73;;;14.02;;
51010;SDS011;37038;50.182;8.624;2024-01-27T17:18:04;25.90;;;12.13;;
51010;SDS011;37038;50.182;8.624;2024-01-27T17:20:52;19.80;;;9.48;;